Time;durP1;ratioP1;P1;durP2;ratioP2;P2;SDS_P1;SDS_P2;PMS_P1;PMS_P2;Temp;Humidity;BMP_temperature;BMP_pressure;BME280_temperature;BME280_humidity;BME280_pressure;Samples;Min_cycle;Max_cycle;Signal;HPM_P1;HPM_P2
2022/07/28 00:01:38;;;;;;;3.80;1.50;;;13.60;99.90;;;;;;4939990;28;20246;-76
2022/07/28 00:04:04;;;;;;;1.73;1.20;;;13.60;99.90;;;;;;4939921;28;20204;-76
2022/07/28 00:06:30;;;;;;;1.20;1.00;;;13.40;99.90;;;;;;4939833;28;20631;-76
2022/07/28 00:08:55;;;;;;;1.47;1.33;;;13.50;99.90;;;;;;4973213;28;20247;-76
2022/07/28 00:11:21;;;;;;;2.27;1.20;;;13.50;99.90;;;;;;4924175;28;20184;-76
2022/07/28 00:13:47;;;;;;;3.23;1.30;;;13.70;99.90;;;;;;4924484;28;20208;-76
2022/07/28 00:16:12;;;;;;;6.20;1.50;;;14.00;99.90;;;;;;4973140;28;20181;-76
2022/07/28 00:18:38;;;;;;;1.73;1.20;;;14.00;99.90;;;;;;4923914;28;20187;-76
2022/07/28 00:21:04;;;;;;;1.30;1.20;;;14.20;99.90;;;;;;4972890;28;20181;-76
2022/07/28 00:23:30;;;;;;;2.43;1.13;;;14.20;99.90;;;;;;4924035;28;20220;-76
2022/07/28 00:25:55;;;;;;;2.33;1.10;;;14.30;99.90;;;;;;4927492;28;20177;-76
2022/07/28 00:28:21;;;;;;;2.60;1.20;;;14.30;99.90;;;;;;4943673;28;20739;-76
2022/07/28 00:30:46;;;;;;;1.83;1.30;;;14.50;99.90;;;;;;4943463;28;20181;-75
2022/07/28 00:33:12;;;;;;;2.33;1.23;;;14.60;99.90;;;;;;4943360;28;20234;-76
2022/07/28 00:35:38;;;;;;;2.30;1.30;;;14.70;99.90;;;;;;4943018;28;20188;-76
2022/07/28 00:38:03;;;;;;;2.23;1.30;;;14.70;99.90;;;;;;4940289;23;21411;-75
2022/07/28 00:43:14;;;;;;;4.23;1.17;;;14.50;99.90;;;;;;4994753;28;20580;-75
2022/07/28 00:45:40;;;;;;;2.30;1.47;;;14.50;99.90;;;;;;4994632;28;20757;-75
2022/07/28 00:48:05;;;;;;;3.70;1.20;;;14.50;99.90;;;;;;4989487;28;20312;-75
2022/07/28 00:50:31;;;;;;;1.50;1.30;;;14.30;99.90;;;;;;4959018;28;20176;-75
2022/07/28 00:52:57;;;;;;;2.37;1.30;;;14.40;99.90;;;;;;4959245;28;20180;-75
2022/07/28 00:55:23;;;;;;;1.97;1.23;;;14.40;99.90;;;;;;4943041;28;20184;-75
2022/07/28 00:57:49;;;;;;;1.30;1.20;;;14.50;99.90;;;;;;4958627;28;20207;-75
2022/07/28 01:00:15;;;;;;;1.20;1.10;;;14.50;99.90;;;;;;4958978;28;20180;-75
2022/07/28 01:02:41;;;;;;;2.10;1.20;;;14.50;99.90;;;;;;4958655;28;20232;-75
2022/07/28 01:05:07;;;;;;;2.40;1.37;;;14.50;99.90;;;;;;4958696;28;20187;-75
2022/07/28 01:07:42;;;;;;;1.67;1.10;;;14.50;99.90;;;;;;4974598;28;20557;-75
2022/07/28 01:10:18;;;;;;;2.10;1.20;;;14.50;99.90;;;;;;4974864;28;20176;-75
2022/07/28 01:12:57;;;;;;;1.70;1.00;;;14.40;99.90;;;;;;4974784;28;20593;-75
2022/07/28 01:15:35;;;;;;;1.73;1.20;;;14.40;99.90;;;;;;4974648;28;20212;-75
2022/07/28 01:18:19;;;;;;;1.93;1.20;;;14.50;99.90;;;;;;4974347;28;20222;-75
2022/07/28 01:20:51;;;;;;;1.77;1.10;;;14.50;99.90;;;;;;4974680;28;20176;-75
2022/07/28 01:23:32;;;;;;;2.37;1.33;;;14.60;99.90;;;;;;4974373;28;20191;-75
2022/07/28 01:26:16;;;;;;;2.27;1.27;;;14.60;99.90;;;;;;4975708;28;20172;-75
2022/07/28 01:29:06;;;;;;;3.27;1.30;;;14.60;99.90;;;;;;4975540;28;20197;-75
2022/07/28 01:31:59;;;;;;;1.90;1.20;;;14.50;99.90;;;;;;4975740;28;20204;-75
2022/07/28 01:34:33;;;;;;;2.83;1.13;;;14.40;99.90;;;;;;4940954;28;20210;-75
2022/07/28 01:37:10;;;;;;;1.50;1.10;;;14.30;99.90;;;;;;4974219;28;20631;-75
2022/07/28 01:39:38;;;;;;;2.10;1.10;;;14.30;99.90;;;;;;4974185;28;20215;-75
2022/07/28 01:42:06;;;;;;;1.63;1.10;;;14.40;99.90;;;;;;4958298;28;20255;-75
2022/07/28 01:44:38;;;;;;;2.03;1.10;;;14.40;99.90;;;;;;4957999;28;20185;-75
2022/07/28 01:47:06;;;;;;;1.70;1.10;;;14.40;99.90;;;;;;4975208;28;20181;-75
2022/07/28 01:49:34;;;;;;;1.60;1.20;;;14.40;99.90;;;;;;4974075;28;20196;-75
2022/07/28 01:52:02;;;;;;;1.77;0.90;;;14.20;99.90;;;;;;4974068;28;20204;-75
2022/07/28 01:54:29;;;;;;;1.57;0.90;;;14.10;99.90;;;;;;4974107;28;20706;-75
2022/07/28 01:56:58;;;;;;;0.80;0.80;;;14.10;99.90;;;;;;4957759;28;20185;-75
2022/07/28 01:59:24;;;;;;;1.23;1.03;;;14.00;99.90;;;;;;4942125;28;20267;-75
2022/07/28 02:01:51;;;;;;;0.73;0.73;;;13.90;99.90;;;;;;4957844;28;20184;-75
2022/07/28 02:04:20;;;;;;;0.77;0.77;;;13.60;99.90;;;;;;4975009;28;20589;-75
2022/07/28 02:06:47;;;;;;;1.40;0.90;;;13.50;99.90;;;;;;4974741;28;20184;-75
2022/07/28 02:09:13;;;;;;;1.57;0.67;;;13.40;99.90;;;;;;4957431;28;20749;-76
2022/07/28 02:11:40;;;;;;;1.67;0.90;;;13.30;99.90;;;;;;4941398;28;20204;-75
2022/07/28 02:14:19;;;;;;;1.20;0.90;;;13.20;99.90;;;;;;4973814;28;20176;-75
2022/07/28 02:16:48;;;;;;;1.57;0.70;;;13.30;99.90;;;;;;4973274;28;20207;-75
2022/07/28 02:19:16;;;;;;;2.97;1.17;;;13.20;99.90;;;;;;4957568;28;20196;-75
2022/07/28 02:21:46;;;;;;;2.73;0.77;;;13.10;99.90;;;;;;4941553;28;20188;-76
2022/07/28 02:24:12;;;;;;;1.07;0.93;;;13.30;99.90;;;;;;4957632;28;20184;-75
2022/07/28 02:26:43;;;;;;;1.27;0.90;;;13.40;99.90;;;;;;4973410;28;20180;-75
2022/07/28 02:29:12;;;;;;;0.80;0.80;;;13.50;99.90;;;;;;4973217;28;20218;-76
2022/07/28 02:31:51;;;;;;;1.10;0.93;;;13.40;99.90;;;;;;4974301;28;20610;-75
2022/07/28 02:34:22;;;;;;;1.03;0.93;;;13.50;99.90;;;;;;4957220;28;20656;-75
2022/07/28 02:36:57;;;;;;;1.97;0.90;;;13.50;99.90;;;;;;4972892;28;20267;-75
2022/07/28 02:39:27;;;;;;;1.93;1.00;;;13.50;99.90;;;;;;4941215;28;20220;-75
2022/07/28 02:42:12;;;;;;;1.43;0.90;;;13.40;99.90;;;;;;4957566;28;20188;-75
2022/07/28 02:44:45;;;;;;;1.20;1.10;;;13.30;99.90;;;;;;4972854;28;20227;-75
2022/07/28 02:47:16;;;;;;;1.00;0.90;;;13.30;99.90;;;;;;4956574;28;20238;-75
2022/07/28 02:49:43;;;;;;;2.07;1.10;;;13.20;99.90;;;;;;4956852;28;20564;-75
2022/07/28 02:52:11;;;;;;;3.67;1.10;;;13.40;99.90;;;;;;4956825;28;20207;-76
2022/07/28 02:54:39;;;;;;;1.20;1.10;;;13.40;99.90;;;;;;4940837;28;20666;-75
2022/07/28 02:57:06;;;;;;;1.53;1.00;;;13.40;99.90;;;;;;4956653;28;20180;-75
2022/07/28 02:59:34;;;;;;;1.00;0.90;;;13.30;99.90;;;;;;4972568;28;20215;-75
2022/07/28 03:02:00;;;;;;;1.73;1.10;;;13.20;99.90;;;;;;4940831;28;20191;-75
2022/07/28 03:07:11;;;;;;;1.53;0.90;;;13.30;99.90;;;;;;4973046;28;20195;-75
2022/07/28 03:09:41;;;;;;;2.93;1.30;;;13.30;99.90;;;;;;4956482;28;20633;-75
2022/07/28 03:12:09;;;;;;;3.33;1.10;;;13.20;99.90;;;;;;4940665;28;20216;-75
2022/07/28 03:14:34;;;;;;;1.50;1.10;;;13.20;99.90;;;;;;4972525;28;20175;-75
2022/07/28 03:17:00;;;;;;;2.90;1.40;;;13.10;99.90;;;;;;4940260;28;20189;-75
2022/07/28 03:19:26;;;;;;;1.43;1.27;;;13.10;99.90;;;;;;4940562;28;20200;-75
2022/07/28 03:21:52;;;;;;;2.07;1.13;;;12.70;99.90;;;;;;4972532;28;20196;-75
2022/07/28 03:24:21;;;;;;;1.70;1.20;;;12.50;99.90;;;;;;4956533;28;20211;-75
2022/07/28 03:26:57;;;;;;;2.20;1.10;;;12.40;99.90;;;;;;4956290;28;20193;-75
2022/07/28 03:29:24;;;;;;;2.63;1.20;;;12.10;99.90;;;;;;4972389;28;20231;-75
2022/07/28 03:31:53;;;;;;;2.37;1.00;;;12.00;99.90;;;;;;4972249;28;20295;-75
2022/07/28 03:34:19;;;;;;;1.50;1.10;;;12.00;99.90;;;;;;4972356;28;20187;-75
2022/07/28 03:36:48;;;;;;;1.97;1.63;;;12.00;99.90;;;;;;4956048;28;20271;-75
2022/07/28 03:39:16;;;;;;;2.33;1.20;;;11.90;99.90;;;;;;4956480;28;20223;-76
2022/07/28 03:41:42;;;;;;;2.93;1.10;;;11.80;99.90;;;;;;4972366;28;20194;-75
2022/07/28 03:44:10;;;;;;;1.67;1.30;;;11.90;99.90;;;;;;4971816;28;20190;-76
2022/07/28 03:46:43;;;;;;;4.13;1.17;;;11.70;99.90;;;;;;4940250;28;20188;-75
2022/07/28 03:49:09;;;;;;;1.77;1.20;;;11.70;99.90;;;;;;4956027;28;20216;-75
2022/07/28 03:51:34;;;;;;;1.90;1.10;;;11.80;99.90;;;;;;4955845;28;20200;-75
2022/07/28 03:54:00;;;;;;;2.00;1.17;;;11.70;99.90;;;;;;4956252;28;20185;-75
2022/07/28 03:56:26;;;;;;;1.27;1.10;;;11.60;99.90;;;;;;4939879;28;20195;-75
2022/07/28 03:58:51;;;;;;;1.60;1.07;;;11.50;99.90;;;;;;4940353;28;20683;-75
2022/07/28 04:01:17;;;;;;;2.97;1.40;;;11.70;99.90;;;;;;4959874;28;20176;-75
2022/07/28 04:03:43;;;;;;;2.20;1.23;;;11.80;99.90;;;;;;4943950;28;20552;-75
2022/07/28 04:06:09;;;;;;;2.60;1.40;;;11.90;99.90;;;;;;4943861;28;20180;-75
2022/07/28 04:08:35;;;;;;;1.83;1.07;;;12.10;99.90;;;;;;4959808;28;20201;-75
2022/07/28 04:11:00;;;;;;;1.47;1.20;;;12.30;99.90;;;;;;4944006;28;20195;-75
2022/07/28 04:13:26;;;;;;;2.53;1.47;;;12.30;99.90;;;;;;4943940;28;20254;-75
2022/07/28 04:15:51;;;;;;;3.47;2.17;;;12.20;99.90;;;;;;4959497;28;20319;-75
2022/07/28 04:18:18;;;;;;;1.73;1.30;;;12.20;99.90;;;;;;4943611;28;20207;-75
2022/07/28 04:20:44;;;;;;;2.20;1.27;;;11.90;99.90;;;;;;4943868;28;20187;-75
2022/07/28 04:23:10;;;;;;;4.57;1.70;;;11.80;99.90;;;;;;4975908;28;20266;-75
2022/07/28 04:25:36;;;;;;;2.67;1.37;;;11.90;99.90;;;;;;4943897;28;20199;-75
2022/07/28 04:28:01;;;;;;;2.50;1.30;;;11.70;99.90;;;;;;4943415;28;20204;-75
2022/07/28 04:30:27;;;;;;;1.53;1.30;;;11.70;99.90;;;;;;4959541;28;20197;-75
2022/07/28 04:32:54;;;;;;;3.93;1.40;;;11.60;99.90;;;;;;4943354;28;20208;-75
2022/07/28 04:35:23;;;;;;;3.60;1.50;;;11.70;99.90;;;;;;4975428;28;20255;-75
2022/07/28 04:37:49;;;;;;;2.00;1.40;;;11.70;99.90;;;;;;4959428;28;20211;-75
2022/07/28 04:40:15;;;;;;;1.90;1.53;;;11.80;99.90;;;;;;4975611;28;20182;-75
2022/07/28 04:42:41;;;;;;;3.03;1.70;;;12.00;99.90;;;;;;4975311;28;20181;-75
2022/07/28 04:45:08;;;;;;;2.07;1.60;;;12.20;99.90;;;;;;4974981;28;20279;-75
2022/07/28 04:47:34;;;;;;;4.63;1.47;;;12.10;99.90;;;;;;4959145;28;20180;-75
2022/07/28 04:50:00;;;;;;;2.00;1.27;;;12.10;99.90;;;;;;4959035;28;20180;-75
2022/07/28 04:52:26;;;;;;;2.23;1.40;;;12.20;99.90;;;;;;4975265;28;20215;-75
2022/07/28 04:54:52;;;;;;;2.43;1.50;;;12.20;99.90;;;;;;4958942;28;20278;-75
2022/07/28 04:57:18;;;;;;;2.63;1.60;;;12.20;99.90;;;;;;4959075;28;20203;-75
2022/07/28 04:59:44;;;;;;;4.00;1.57;;;12.20;99.90;;;;;;4974801;28;20246;-75
2022/07/28 05:02:11;;;;;;;2.37;1.40;;;12.30;99.90;;;;;;4943174;28;20189;-75
2022/07/28 05:04:37;;;;;;;1.83;1.60;;;12.50;99.90;;;;;;4974862;28;20192;-75
2022/07/28 05:07:03;;;;;;;3.47;1.93;;;12.60;99.90;;;;;;4958803;28;20194;-76
2022/07/28 05:09:30;;;;;;;2.57;2.10;;;12.70;99.90;;;;;;4958553;28;20327;-76
2022/07/28 05:11:56;;;;;;;2.80;2.00;;;12.70;99.90;;;;;;4958604;28;20204;-76
2022/07/28 05:14:22;;;;;;;3.40;1.90;;;12.70;99.90;;;;;;4942702;28;20187;-76
2022/07/28 05:16:47;;;;;;;4.00;1.70;;;12.80;99.90;;;;;;4958489;28;20187;-76
2022/07/28 05:19:13;;;;;;;2.90;1.80;;;12.80;99.90;;;;;;4958360;28;20223;-76
2022/07/28 05:21:38;;;;;;;1.80;1.50;;;12.90;99.90;;;;;;4942879;28;20222;-76
2022/07/28 05:24:05;;;;;;;2.63;1.60;;;13.10;99.90;;;;;;4942549;28;20183;-76
2022/07/28 05:26:31;;;;;;;2.83;1.40;;;13.30;99.90;;;;;;4942798;28;20184;-76
2022/07/28 05:28:57;;;;;;;2.77;1.40;;;13.60;99.90;;;;;;4974325;28;20555;-76
2022/07/28 05:31:22;;;;;;;3.00;1.47;;;13.80;99.90;;;;;;4942430;28;20187;-76
2022/07/28 05:33:48;;;;;;;2.97;1.20;;;13.90;99.90;;;;;;4958115;28;20192;-76
2022/07/28 05:36:14;;;;;;;3.77;1.40;;;14.10;99.90;;;;;;4974421;28;20183;-76
2022/07/28 05:38:39;;;;;;;5.67;1.30;;;14.10;99.90;;;;;;4974232;28;20246;-76
2022/07/28 05:41:08;;;;;;;6.30;1.50;;;14.30;99.90;;;;;;4942160;28;20188;-76
2022/07/28 05:43:37;;;;;;;4.17;1.50;;;14.40;99.90;;;;;;4958500;28;20235;-76
2022/07/28 05:46:03;;;;;;;2.10;1.27;;;14.60;99.90;;;;;;4942947;28;20275;-76
2022/07/28 05:48:29;;;;;;;3.23;1.40;;;14.70;99.90;;;;;;4942124;28;20204;-76
2022/07/28 05:50:55;;;;;;;2.90;1.27;;;14.90;99.90;;;;;;4958199;28;20283;-76
2022/07/28 05:53:21;;;;;;;2.20;1.30;;;15.00;99.90;;;;;;4957967;28;20219;-76
2022/07/28 05:55:47;;;;;;;3.57;1.40;;;15.10;99.90;;;;;;4974029;28;20629;-76
2022/07/28 05:58:12;;;;;;;2.63;1.37;;;15.20;99.90;;;;;;4973806;28;20216;-76
2022/07/28 06:00:38;;;;;;;2.77;1.40;;;15.20;99.90;;;;;;4941936;28;20185;-76
2022/07/28 06:03:04;;;;;;;2.63;1.20;;;15.20;99.90;;;;;;4941786;28;20196;-76
2022/07/28 06:05:31;;;;;;;2.60;1.27;;;15.30;99.90;;;;;;4942188;28;20230;-76
2022/07/28 06:07:57;;;;;;;2.07;1.10;;;15.30;99.90;;;;;;4973544;28;20235;-76
2022/07/28 06:10:25;;;;;;;1.50;1.00;;;15.40;99.90;;;;;;4973779;28;20230;-76
2022/07/28 06:12:53;;;;;;;2.00;1.30;;;15.50;99.90;;;;;;4957514;28;20224;-76
2022/07/28 06:15:24;;;;;;;3.83;0.90;;;15.50;99.90;;;;;;4957489;28;20222;-76
2022/07/28 06:17:51;;;;;;;2.10;0.90;;;15.60;99.90;;;;;;4957481;28;20296;-76
2022/07/28 06:20:18;;;;;;;2.03;1.00;;;15.70;99.90;;;;;;4957862;28;20180;-76
2022/07/28 06:22:52;;;;;;;1.50;1.27;;;15.70;99.90;;;;;;4972574;28;20312;-76
2022/07/28 06:25:23;;;;;;;2.17;1.03;;;15.80;99.90;;;;;;4973405;28;20187;-76
2022/07/28 06:27:51;;;;;;;1.70;1.30;;;15.90;99.90;;;;;;4957058;28;20205;-76
2022/07/28 06:30:17;;;;;;;2.43;1.00;;;16.00;99.90;;;;;;4957439;28;20176;-76
2022/07/28 06:32:43;;;;;;;3.33;1.13;;;16.20;99.90;;;;;;4957415;28;20624;-76
2022/07/28 06:35:10;;;;;;;0.90;0.90;;;16.30;99.90;;;;;;4941367;28;20187;-76
2022/07/28 06:37:36;;;;;;;2.27;1.30;;;16.30;99.90;;;;;;4956981;28;20181;-76
2022/07/28 06:40:02;;;;;;;3.27;1.33;;;16.50;99.90;;;;;;4984262;23;20266;-75
2022/07/28 06:42:28;;;;;;;3.33;1.10;;;16.60;99.90;;;;;;4960139;28;20189;-76
2022/07/28 06:44:54;;;;;;;2.27;1.20;;;16.70;99.90;;;;;;4976147;28;20183;-76
2022/07/28 06:47:19;;;;;;;2.00;1.00;;;16.90;99.90;;;;;;4944251;28;20263;-76
2022/07/28 06:49:45;;;;;;;2.60;1.30;;;17.00;99.90;;;;;;4960108;28;20216;-76
2022/07/28 06:52:11;;;;;;;1.63;0.90;;;17.10;99.90;;;;;;4960127;28;20561;-76
2022/07/28 06:54:37;;;;;;;0.80;0.80;;;17.20;99.90;;;;;;4960185;28;20183;-76
2022/07/28 06:57:03;;;;;;;1.13;0.70;;;17.30;99.90;;;;;;4975665;28;20193;-76
2022/07/28 06:59:29;;;;;;;1.30;0.90;;;17.30;99.90;;;;;;4976070;28;20741;-76
2022/07/28 07:02:00;;;;;;;0.80;0.80;;;17.50;99.90;;;;;;4960067;28;20195;-76
2022/07/28 07:04:26;;;;;;;0.97;0.90;;;17.50;99.90;;;;;;4960514;28;20282;-76
2022/07/28 07:06:52;;;;;;;0.80;0.80;;;17.60;99.90;;;;;;4959781;28;20180;-76
2022/07/28 07:09:17;;;;;;;1.33;0.80;;;17.60;99.90;;;;;;4975867;28;20206;-76
2022/07/28 07:11:43;;;;;;;1.77;0.90;;;17.80;99.90;;;;;;4959605;28;20261;-76
2022/07/28 07:14:08;;;;;;;1.07;0.93;;;17.90;99.90;;;;;;4944054;28;20180;-76
2022/07/28 07:16:34;;;;;;;2.87;1.10;;;17.90;99.90;;;;;;4943626;28;20188;-76
2022/07/28 07:19:00;;;;;;;1.90;0.97;;;18.00;99.90;;;;;;4943654;28;20220;-76
2022/07/28 07:21:25;;;;;;;2.13;1.17;;;18.10;99.90;;;;;;4959754;28;20230;-76
2022/07/28 07:23:51;;;;;;;0.97;0.97;;;18.30;99.90;;;;;;4959549;28;20274;-76
2022/07/28 07:26:16;;;;;;;1.87;0.97;;;18.40;99.90;;;;;;4959209;28;20566;-76
2022/07/28 07:28:42;;;;;;;1.23;0.80;;;18.50;99.90;;;;;;4943556;28;20205;-76
2022/07/28 07:31:08;;;;;;;1.67;0.87;;;18.60;99.90;;;;;;4943708;28;20179;-76
2022/07/28 07:33:33;;;;;;;1.60;0.77;;;18.70;99.90;;;;;;4959176;28;20214;-76
2022/07/28 07:35:59;;;;;;;3.37;1.07;;;18.90;99.90;;;;;;4943573;28;20198;-76
2022/07/28 07:38:24;;;;;;;4.33;1.00;;;19.00;99.90;;;;;;4943264;28;20330;-76
2022/07/28 07:40:50;;;;;;;1.47;1.00;;;19.20;99.90;;;;;;4959378;28;20576;-76
2022/07/28 07:43:17;;;;;;;2.50;1.10;;;19.40;99.90;;;;;;4959459;28;20179;-76
2022/07/28 07:45:43;;;;;;;1.80;1.23;;;19.50;99.90;;;;;;4975651;28;20215;-76
2022/07/28 07:48:09;;;;;;;1.33;0.70;;;19.80;99.90;;;;;;4975252;28;20275;-75
2022/07/28 07:50:35;;;;;;;1.23;1.10;;;20.00;99.90;;;;;;4993107;28;20187;-76
2022/07/28 07:53:00;;;;;;;2.50;0.90;;;20.10;99.90;;;;;;4959061;28;20211;-76
2022/07/28 07:55:26;;;;;;;1.00;0.90;;;20.20;99.90;;;;;;4975390;28;20176;-76
2022/07/28 07:57:52;;;;;;;3.40;1.10;;;20.30;99.90;;;;;;4959260;28;20183;-77
2022/07/28 08:00:20;;;;;;;1.60;0.87;;;20.50;99.90;;;;;;4975153;28;20207;-76
2022/07/28 08:02:46;;;;;;;0.90;0.90;;;20.70;99.90;;;;;;4992618;28;20175;-77
2022/07/28 08:05:12;;;;;;;3.30;1.15;;;20.80;99.90;;;;;;4975370;28;20266;-77
2022/07/28 08:07:38;;;;;;;1.07;0.97;;;20.90;99.90;;;;;;4974963;28;20175;-77
2022/07/28 08:10:04;;;;;;;1.05;0.98;;;21.00;99.50;;;;;;4974914;28;20235;-77
2022/07/28 08:12:30;;;;;;;1.40;1.13;;;21.10;98.50;;;;;;4959088;28;20211;-77
2022/07/28 08:14:56;;;;;;;1.90;1.00;;;21.20;99.30;;;;;;4959353;28;20533;-77
2022/07/28 08:17:22;;;;;;;2.28;1.00;;;21.40;98.00;;;;;;4958946;28;20180;-77
2022/07/28 08:19:48;;;;;;;1.20;1.10;;;21.60;97.50;;;;;;4959074;28;20254;-77
2022/07/28 08:22:14;;;;;;;82.43;75.05;;;21.70;99.00;;;;;;4975071;28;20681;-76
2022/07/28 08:24:40;;;;;;;3.47;1.27;;;21.80;96.60;;;;;;4975004;28;20184;-77
2022/07/28 08:27:06;;;;;;;1.30;1.20;;;21.80;95.20;;;;;;4958785;28;20214;-77
2022/07/28 08:29:32;;;;;;;3.15;1.40;;;21.80;96.70;;;;;;4974920;28;20239;-77
2022/07/28 08:32:00;;;;;;;3.35;1.20;;;21.90;96.80;;;;;;4975293;28;20195;-77
2022/07/28 08:34:25;;;;;;;1.83;0.95;;;22.10;97.00;;;;;;4974934;28;20172;-76
2022/07/28 08:36:52;;;;;;;2.65;0.98;;;22.20;95.20;;;;;;4958810;28;20183;-76
2022/07/28 08:39:18;;;;;;;3.00;1.10;;;22.10;94.50;;;;;;4943200;28;20219;-77
2022/07/28 08:41:58;;;;;;;2.15;1.00;;;22.20;94.90;;;;;;4958828;28;20246;-76
2022/07/28 08:44:29;;;;;;;3.40;1.15;;;22.30;94.60;;;;;;4974727;28;20266;-77
2022/07/28 08:46:56;;;;;;;2.42;1.10;;;22.30;94.00;;;;;;4995518;28;20183;-77
2022/07/28 08:49:22;;;;;;;1.17;1.00;;;22.50;94.40;;;;;;4962339;28;20207;-77
2022/07/28 08:51:51;;;;;;;1.98;1.20;;;22.70;94.60;;;;;;4978325;28;20591;-77
2022/07/28 08:54:21;;;;;;;2.33;1.20;;;22.90;93.80;;;;;;4962193;28;20211;-77
2022/07/28 08:56:48;;;;;;;2.30;1.10;;;23.10;92.30;;;;;;4978226;28;20199;-77
2022/07/28 08:59:13;;;;;;;1.58;1.27;;;23.30;92.40;;;;;;4946780;28;20195;-77
2022/07/28 09:01:40;;;;;;;1.10;1.00;;;23.50;91.90;;;;;;4962953;28;20178;-78
2022/07/28 09:04:07;;;;;;;2.10;1.10;;;23.80;90.00;;;;;;4980102;28;20271;-78
2022/07/28 09:06:33;;;;;;;1.48;1.10;;;23.80;89.50;;;;;;4947860;28;20190;-78
2022/07/28 09:08:59;;;;;;;3.78;1.50;;;23.90;89.90;;;;;;4947583;28;20211;-78
2022/07/28 09:11:27;;;;;;;1.60;1.10;;;23.60;88.00;;;;;;4963960;28;20180;-78
2022/07/28 09:13:52;;;;;;;3.08;1.10;;;23.20;88.40;;;;;;4964163;28;20234;-78
2022/07/28 09:16:18;;;;;;;3.17;1.50;;;23.40;90.10;;;;;;4963170;28;20179;-78
2022/07/28 09:18:44;;;;;;;1.30;1.20;;;23.40;89.00;;;;;;4963226;28;20207;-78
2022/07/28 09:21:13;;;;;;;2.45;1.35;;;23.30;87.90;;;;;;4963756;28;20175;-78
2022/07/28 09:23:47;;;;;;;2.15;1.40;;;23.20;87.70;;;;;;4979190;28;20195;-78
2022/07/28 09:26:13;;;;;;;4.38;1.30;;;23.20;88.80;;;;;;4980101;28;20258;-78
2022/07/28 09:28:51;;;;;;;2.38;1.23;;;23.40;87.70;;;;;;4996255;28;20184;-78
2022/07/28 09:31:18;;;;;;;2.67;1.20;;;23.40;87.60;;;;;;4979061;28;20180;-77
2022/07/28 09:33:55;;;;;;;2.00;1.20;;;23.40;89.20;;;;;;4978903;28;20211;-78
2022/07/28 09:36:21;;;;;;;1.83;1.20;;;23.90;86.60;;;;;;4946638;28;20175;-78
2022/07/28 09:38:47;;;;;;;3.33;1.40;;;24.20;84.20;;;;;;4978570;28;20580;-78
2022/07/28 09:41:13;;;;;;;2.28;1.30;;;24.50;82.40;;;;;;4978871;28;20171;-78
2022/07/28 09:43:42;;;;;;;1.80;1.40;;;24.90;80.40;;;;;;4978654;28;20179;-78
2022/07/28 09:46:14;;;;;;;2.28;1.27;;;24.90;78.10;;;;;;4996275;28;20548;-77
2022/07/28 09:48:49;;;;;;;2.35;1.42;;;25.00;78.00;;;;;;4978562;28;20282;-78
2022/07/28 09:51:34;;;;;;;4.05;1.27;;;24.90;75.90;;;;;;4978284;28;20179;-78
2022/07/28 09:54:10;;;;;;;1.83;1.30;;;24.80;75.30;;;;;;4946712;28;20215;-78
2022/07/28 09:56:38;;;;;;;6.25;1.30;;;24.50;75.20;;;;;;4978249;28;20180;-77
2022/07/28 09:59:03;;;;;;;3.60;1.27;;;24.20;75.40;;;;;;4978206;28;20199;-78
2022/07/28 10:01:29;;;;;;;3.08;1.30;;;24.10;76.70;;;;;;4962175;28;20263;-78
2022/07/28 10:03:57;;;;;;;2.45;1.20;;;24.40;77.20;;;;;;4962108;28;20182;-78
2022/07/28 10:06:25;;;;;;;2.67;1.40;;;24.70;75.40;;;;;;4977617;28;20218;-78
2022/07/28 10:08:54;;;;;;;2.35;1.30;;;24.40;74.90;;;;;;4962115;28;20242;-78
2022/07/28 10:11:23;;;;;;;2.45;1.30;;;24.50;76.70;;;;;;4961890;28;20180;-78
2022/07/28 10:13:58;;;;;;;1.70;1.30;;;24.60;78.30;;;;;;4961986;28;20195;-78
2022/07/28 10:16:26;;;;;;;2.10;1.10;;;24.60;74.60;;;;;;4995160;28;20163;-78
2022/07/28 10:18:52;;;;;;;2.05;1.05;;;24.60;76.50;;;;;;4977841;28;20230;-78
2022/07/28 10:21:19;;;;;;;1.70;1.30;;;24.40;74.90;;;;;;4977849;28;20196;-78
2022/07/28 10:23:57;;;;;;;2.10;1.38;;;24.30;77.10;;;;;;4977994;28;20180;-78
2022/07/28 10:26:31;;;;;;;2.50;1.30;;;24.70;74.90;;;;;;4978018;28;20186;-78
2022/07/28 10:29:01;;;;;;;2.08;1.27;;;25.20;73.50;;;;;;4977796;28;20195;-78
2022/07/28 10:31:52;;;;;;;2.08;1.20;;;25.50;67.70;;;;;;4945678;28;20231;-77
2022/07/28 10:34:24;;;;;;;4.32;1.40;;;25.50;69.10;;;;;;4977584;28;20176;-78
2022/07/28 10:36:54;;;;;;;1.65;1.30;;;25.50;69.90;;;;;;4977296;28;20176;-78
2022/07/28 10:39:22;;;;;;;1.92;1.23;;;25.90;68.10;;;;;;4977321;28;20298;-78
2022/07/28 10:41:49;;;;;;;3.05;1.30;;;26.20;67.60;;;;;;4961368;28;20186;-78
2022/07/28 10:44:18;;;;;;;2.40;1.40;;;26.30;63.30;;;;;;4976675;28;20548;-78
2022/07/28 10:46:44;;;;;;;1.77;1.17;;;26.30;61.80;;;;;;4960862;28;20179;-78
2022/07/28 10:49:12;;;;;;;1.90;1.20;;;26.70;62.20;;;;;;4977364;28;20199;-78
2022/07/28 10:51:46;;;;;;;1.58;1.20;;;26.50;62.00;;;;;;4994409;28;20210;-77
2022/07/28 10:54:24;;;;;;;1.10;0.82;;;26.80;61.60;;;;;;4977307;28;20254;-77
2022/07/28 10:56:55;;;;;;;1.00;0.90;;;26.80;61.10;;;;;;4977363;28;20215;-78
2022/07/28 10:59:39;;;;;;;1.80;1.10;;;26.90;60.00;;;;;;4977016;28;20192;-78
2022/07/28 11:02:05;;;;;;;1.25;0.93;;;26.60;58.90;;;;;;4976680;28;20646;-78
2022/07/28 11:04:39;;;;;;;1.10;1.00;;;26.50;59.50;;;;;;4976769;28;20180;-78
2022/07/28 11:07:12;;;;;;;1.15;1.00;;;26.60;58.20;;;;;;4976384;28;20191;-78
2022/07/28 11:09:38;;;;;;;2.08;1.00;;;26.90;59.50;;;;;;4960875;28;20210;-78
2022/07/28 11:12:05;;;;;;;1.10;1.00;;;26.90;55.70;;;;;;4944611;28;20294;-78
2022/07/28 11:14:32;;;;;;;0.80;0.80;;;27.00;55.70;;;;;;4960984;28;20175;-77
2022/07/28 11:17:04;;;;;;;1.35;1.17;;;27.30;58.20;;;;;;4976264;28;20549;-77
2022/07/28 11:19:45;;;;;;;1.95;0.80;;;27.20;53.80;;;;;;4993862;28;20184;-78
2022/07/28 11:22:14;;;;;;;1.00;0.90;;;27.10;54.10;;;;;;4993771;28;20186;-77
2022/07/28 11:25:00;;;;;;;1.10;1.00;;;26.80;54.30;;;;;;4976394;28;20171;-77
2022/07/28 11:27:50;;;;;;;1.10;0.80;;;27.20;54.20;;;;;;4976290;28;20186;-77
2022/07/28 11:30:26;;;;;;;1.17;1.00;;;27.50;54.90;;;;;;4976371;28;20215;-78
2022/07/28 11:32:54;;;;;;;2.05;1.27;;;27.80;52.90;;;;;;4976526;28;20573;-78
2022/07/28 11:35:25;;;;;;;69.47;6.25;;;27.70;53.10;;;;;;4993654;28;20164;-77
2022/07/28 11:38:00;;;;;;;2.47;1.60;;;27.90;51.10;;;;;;4960175;28;20536;-77
2022/07/28 11:40:34;;;;;;;442.40;72.00;;;27.70;53.30;;;;;;4975996;28;20183;-78
2022/07/28 11:43:21;;;;;;;296.00;60.03;;;27.90;51.50;;;;;;4976250;28;20650;-77
2022/07/28 11:45:51;;;;;;;8.70;7.97;;;27.70;51.30;;;;;;4993562;28;20175;-78
2022/07/28 11:48:20;;;;;;;2.42;1.45;;;27.10;50.90;;;;;;4959923;28;20294;-77
2022/07/28 11:51:19;;;;;;;93.20;20.15;;;27.00;51.60;;;;;;4959855;28;20666;-78
2022/07/28 11:53:49;;;;;;;132.20;42.30;;;27.40;51.50;;;;;;4923417;28;20713;-78
2022/07/28 11:56:23;;;;;;;1.67;1.27;;;27.60;49.70;;;;;;4975926;28;20210;-78
2022/07/28 11:59:04;;;;;;;66.50;7.60;;;28.10;51.70;;;;;;4975849;28;20192;-78
2022/07/28 12:01:32;;;;;;;1.75;1.40;;;28.20;51.00;;;;;;4976301;28;20179;-78
2022/07/28 12:03:58;;;;;;;1.52;1.30;;;28.10;48.30;;;;;;4976112;28;20605;-77
2022/07/28 12:06:25;;;;;;;2.38;1.23;;;27.60;47.60;;;;;;4959953;28;20176;-78
2022/07/28 12:08:59;;;;;;;3.13;1.42;;;28.00;49.40;;;;;;4959992;28;20598;-77
2022/07/28 12:11:26;;;;;;;4.53;1.27;;;28.20;47.60;;;;;;4960122;28;20183;-78
2022/07/28 12:14:22;;;;;;;4.22;1.30;;;28.20;49.10;;;;;;4975610;28;20233;-77
2022/07/28 12:16:50;;;;;;;1.67;1.23;;;28.40;48.80;;;;;;4955366;28;20176;-77
2022/07/28 12:19:18;;;;;;;1.52;1.23;;;28.90;48.10;;;;;;4993175;28;20191;-77
2022/07/28 12:21:47;;;;;;;1.40;1.20;;;29.50;48.30;;;;;;4963543;28;20179;-78
2022/07/28 12:24:18;;;;;;;2.20;1.42;;;29.80;46.80;;;;;;4979551;28;20191;-78
2022/07/28 12:26:43;;;;;;;4.03;1.20;;;29.70;45.20;;;;;;4948223;28;20262;-78
2022/07/28 12:29:13;;;;;;;1.58;1.40;;;30.00;44.00;;;;;;4963601;28;20271;-77
2022/07/28 12:31:54;;;;;;;1.73;1.40;;;29.90;43.10;;;;;;4963386;28;20182;-77
2022/07/28 12:34:20;;;;;;;1.50;1.30;;;29.60;43.00;;;;;;4979569;28;20176;-78
2022/07/28 12:36:47;;;;;;;2.85;1.27;;;29.80;44.90;;;;;;4978959;28;20183;-77
2022/07/28 12:39:15;;;;;;;3.42;1.30;;;29.80;44.30;;;;;;4985607;23;20231;-77
2022/07/28 12:41:42;;;;;;;2.85;1.25;;;29.80;44.70;;;;;;4962919;28;20186;-76
2022/07/28 12:44:08;;;;;;;2.22;1.20;;;30.10;43.80;;;;;;4978458;28;20248;-76
2022/07/28 12:46:34;;;;;;;2.72;1.30;;;30.10;42.60;;;;;;4978567;28;20172;-77
2022/07/28 12:49:01;;;;;;;2.58;1.20;;;30.30;42.10;;;;;;4956292;28;20193;-77
2022/07/28 12:51:31;;;;;;;2.55;1.10;;;30.20;40.50;;;;;;4976475;28;20165;-77
2022/07/28 12:53:57;;;;;;;1.25;1.10;;;30.20;43.10;;;;;;4959294;28;20176;-77
2022/07/28 12:56:22;;;;;;;2.03;1.50;;;30.10;40.80;;;;;;4958848;28;20256;-76
2022/07/28 12:58:55;;;;;;;1.90;1.20;;;30.00;39.80;;;;;;4974989;28;20196;-77